Bellfntn, Ohio
Current Conditions -  °F | °C
As of 11:30 AM on Saturday 25 Oct 2014 (Local Time) from KEDJ Reporting Station
Overcast Overcast  
Wind Chill: 59°   Ceiling: 500
Heat Index: 59°   Visibility: 0.5mi
Dew Point: 52°   Wind: 10mph
Humidity: 77%   Direction: 220°SW
Pressure: 29.93"   Gusts: NA
Location:  40.3706°N, 83.7423°W
Report Text: KEDJ 251530Z AUTO 22009KT 1/2SM VV005 15/11 A2993 RMK AO1
Loading
Personal Weather Stations






























Interactive Weather Map
Tropical Storm Tracking
New forecast layout! Learn more

10-Day Weather Forecast

Advertisements
Track Severe Weather on mobile